Time;durP1;ratioP1;P1;durP2;ratioP2;P2;SDS_P1;SDS_P2;PMS_P1;PMS_P2;Temp;Humidity;BMP_temperature;BMP_pressure;BME280_temperature;BME280_humidity;BME280_pressure;Samples;Min_cycle;Max_cycle;Signal;HPM_P1;HPM_P2
2022/07/07 00:03:04;;;;;;;3.10;1.70;;;;;;;14.04;72.81;100436.70;130237;1268;108959;-76
2022/07/07 00:06:09;;;;;;;3.90;2.10;;;;;;;14.12;72.70;100436.76;130213;1268;108863;-77
2022/07/07 00:09:14;;;;;;;2.30;1.90;;;;;;;14.13;72.71;100435.48;130249;1268;109016;-78
2022/07/07 00:12:20;;;;;;;4.90;1.80;;;;;;;14.11;72.89;100432.16;130195;1268;108662;-78
2022/07/07 00:15:25;;;;;;;2.70;1.90;;;;;;;14.09;73.03;100432.93;130224;1268;108792;-79
2022/07/07 00:18:31;;;;;;;2.80;1.70;;;;;;;14.12;73.23;100429.91;130171;1271;108801;-81
2022/07/07 00:21:36;;;;;;;5.90;1.80;;;;;;;14.17;73.11;100428.13;130235;1271;107854;-78
2022/07/07 00:24:42;;;;;;;5.10;1.80;;;;;;;14.19;73.01;100427.75;130154;1271;108975;-79
2022/07/07 00:27:47;;;;;;;3.60;2.10;;;;;;;14.24;73.01;100427.42;130143;1271;109030;-78
2022/07/07 00:30:53;;;;;;;4.00;1.60;;;;;;;14.26;73.16;100426.21;130148;1271;108880;-79
2022/07/07 00:33:58;;;;;;;2.70;2.30;;;;;;;14.26;73.12;100423.02;130174;1271;108882;-75
2022/07/07 00:37:04;;;;;;;5.00;1.80;;;;;;;14.23;73.18;100416.85;130053;1271;108977;-76
2022/07/07 00:40:11;;;;;;;2.10;1.70;;;;;;;14.18;73.20;100415.58;130225;1268;108505;-76
2022/07/07 00:43:17;;;;;;;2.20;1.60;;;;;;;14.14;73.38;100417.16;130033;1270;108860;-76
2022/07/07 00:46:22;;;;;;;3.00;1.50;;;;;;;14.11;73.21;100416.96;130089;1270;108213;-77
2022/07/07 00:49:28;;;;;;;2.20;1.80;;;;;;;14.12;73.53;100418.06;130230;1268;108704;-76
2022/07/07 00:52:33;;;;;;;3.40;1.50;;;;;;;14.08;73.74;100414.63;130286;1268;109052;-77
2022/07/07 00:55:40;;;;;;;2.80;1.90;;;;;;;13.99;73.62;100412.61;130262;1268;109073;-76
2022/07/07 00:58:45;;;;;;;1.90;1.60;;;;;;;13.97;73.93;100411.94;130216;1268;107838;-76
2022/07/07 01:01:51;;;;;;;4.40;1.50;;;;;;;13.97;74.07;100411.73;130219;1268;108654;-74
2022/07/07 01:04:57;;;;;;;2.70;1.70;;;;;;;13.98;73.99;100411.83;130118;1271;108871;-75
2022/07/07 01:08:04;;;;;;;4.30;1.70;;;;;;;13.95;74.07;100412.54;129908;1271;343056;-75
2022/07/07 01:11:10;;;;;;;4.40;1.60;;;;;;;13.96;74.28;100412.40;130259;1268;108823;-74
2022/07/07 01:14:16;;;;;;;2.40;1.50;;;;;;;13.97;74.25;100407.97;130218;1268;108867;-75
2022/07/07 01:17:21;;;;;;;2.20;1.40;;;;;;;13.97;74.24;100409.05;130190;1268;108921;-76
2022/07/07 01:20:27;;;;;;;2.30;1.60;;;;;;;13.93;74.29;100406.10;130210;1268;108722;-75
2022/07/07 01:23:33;;;;;;;3.20;1.50;;;;;;;13.88;74.52;100408.46;130294;1268;107258;-76
2022/07/07 01:26:41;;;;;;;2.60;1.70;;;;;;;13.84;74.65;100408.35;130271;1268;108773;-76
2022/07/07 01:29:48;;;;;;;4.70;1.80;;;;;;;13.86;74.60;100400.59;130263;1268;108690;-76
2022/07/07 01:32:53;;;;;;;2.60;1.70;;;;;;;13.86;74.42;100403.21;130287;1268;108734;-77
2022/07/07 01:35:59;;;;;;;1.90;1.50;;;;;;;13.79;74.66;100406.24;130234;1268;108771;-75
2022/07/07 01:39:04;;;;;;;2.60;1.40;;;;;;;13.71;74.95;100403.37;130218;1268;109002;-72
2022/07/07 01:42:11;;;;;;;3.10;1.60;;;;;;;13.68;75.17;100405.49;130299;1268;108978;-74
2022/07/07 01:45:16;;;;;;;2.70;1.60;;;;;;;13.68;75.06;100405.49;130264;1268;107089;-77
2022/07/07 01:48:21;;;;;;;2.70;1.80;;;;;;;13.73;75.08;100409.40;130228;1268;108897;-77
2022/07/07 01:51:27;;;;;;;2.50;1.80;;;;;;;13.79;75.21;100405.07;130219;1268;108726;-78
2022/07/07 01:54:33;;;;;;;2.70;1.60;;;;;;;13.76;75.22;100410.20;130186;1268;108930;-77
2022/07/07 01:57:39;;;;;;;2.50;1.60;;;;;;;13.72;75.27;100405.55;130246;1268;108722;-76
2022/07/07 02:00:44;;;;;;;1.60;1.30;;;;;;;13.73;75.42;100406.02;130267;1268;108817;-77
2022/07/07 02:03:50;;;;;;;2.60;1.50;;;;;;;13.74;75.33;100402.50;130234;1268;108922;-80
2022/07/07 02:06:56;;;;;;;2.00;1.50;;;;;;;13.81;75.45;100401.18;130334;1268;108729;-81
2022/07/07 02:10:04;;;;;;;2.50;1.60;;;;;;;13.83;75.48;100403.88;130323;1268;107861;-82
2022/07/07 02:13:10;;;;;;;2.60;1.40;;;;;;;13.78;75.50;100405.84;130290;1268;108756;-82
2022/07/07 02:16:17;;;;;;;2.70;1.40;;;;;;;13.71;75.69;100404.10;130311;1268;108914;-75
2022/07/07 02:19:22;;;;;;;2.30;1.60;;;;;;;13.67;75.80;100403.30;130148;1271;106847;-73
2022/07/07 02:22:28;;;;;;;1.80;1.30;;;;;;;13.62;75.62;100395.77;130332;1268;109393;-76
2022/07/07 02:25:34;;;;;;;3.50;1.60;;;;;;;13.63;75.81;100397.64;130247;1268;108855;-77
2022/07/07 02:28:39;;;;;;;2.00;1.50;;;;;;;13.70;75.81;100399.76;130293;1268;109711;-77
2022/07/07 02:31:45;;;;;;;1.80;1.40;;;;;;;13.68;75.91;100402.11;130331;1268;108759;-77
2022/07/07 02:34:50;;;;;;;1.80;1.30;;;;;;;13.67;75.96;100403.84;130189;1268;109704;-78
2022/07/07 02:37:56;;;;;;;3.20;1.60;;;;;;;13.66;76.07;100403.38;130327;1271;108855;-82
2022/07/07 02:41:01;;;;;;;2.30;1.50;;;;;;;13.69;76.20;100404.35;130306;1270;106991;-75
2022/07/07 02:44:07;;;;;;;2.90;1.60;;;;;;;13.72;76.17;100398.24;130185;1271;108687;-74
2022/07/07 02:47:13;;;;;;;3.10;1.60;;;;;;;13.75;76.06;100402.02;130209;1271;108864;-79
2022/07/07 02:50:18;;;;;;;3.70;1.40;;;;;;;13.77;76.25;100405.58;130424;1271;108845;-79
2022/07/07 02:53:24;;;;;;;1.80;1.30;;;;;;;13.80;76.34;100404.16;130319;1270;106953;-80
2022/07/07 02:56:30;;;;;;;1.90;1.20;;;;;;;13.81;76.16;100400.87;130436;1271;108744;-83
2022/07/07 02:59:36;;;;;;;1.70;1.30;;;;;;;13.90;76.85;100397.41;130491;1270;108823;-83
2022/07/07 03:02:41;;;;;;;2.00;1.40;;;;;;;14.00;76.41;100399.86;130885;1271;109388;-83
2022/07/07 03:05:47;;;;;;;2.80;1.70;;;;;;;14.03;76.47;100401.94;130472;1269;108682;-83
2022/07/07 03:08:52;;;;;;;1.70;1.40;;;;;;;14.00;76.55;100408.70;130246;1270;107857;-83
2022/07/07 03:11:57;;;;;;;2.30;1.20;;;;;;;14.00;76.59;100408.76;130452;1268;107716;-83
2022/07/07 03:15:03;;;;;;;3.20;1.60;;;;;;;14.05;76.56;100402.96;130539;1268;108607;-83
2022/07/07 03:18:08;;;;;;;2.40;1.50;;;;;;;14.12;76.59;100403.68;130587;1268;108866;-83
2022/07/07 03:21:14;;;;;;;1.90;1.30;;;;;;;14.18;76.41;100406.92;130627;1268;108795;-83
2022/07/07 03:24:19;;;;;;;2.80;1.60;;;;;;;14.23;76.56;100402.59;130634;1268;107767;-83
2022/07/07 03:27:25;;;;;;;3.20;1.50;;;;;;;14.22;76.35;100401.97;130653;1268;108707;-83
2022/07/07 03:30:30;;;;;;;2.90;1.50;;;;;;;14.17;76.50;100398.26;130627;1268;108759;-83
2022/07/07 03:33:35;;;;;;;3.80;1.40;;;;;;;14.12;76.90;100396.13;130618;1268;108736;-83
2022/07/07 03:36:41;;;;;;;2.00;1.40;;;;;;;14.10;76.80;100395.47;130727;1268;108778;-83
2022/07/07 03:39:46;;;;;;;1.50;1.30;;;;;;;14.17;77.01;100391.86;130621;1268;107740;-83
2022/07/07 03:42:52;;;;;;;2.60;1.50;;;;;;;14.23;76.80;100395.23;130697;1268;108754;-83
2022/07/07 03:45:57;;;;;;;2.80;1.50;;;;;;;14.28;76.93;100393.55;130586;1268;108961;-83
2022/07/07 03:49:03;;;;;;;2.80;1.30;;;;;;;14.33;76.96;100399.11;130536;1268;108828;-81
2022/07/07 03:52:09;;;;;;;3.70;1.40;;;;;;;14.36;76.81;100395.23;130535;1265;108669;-81
2022/07/07 03:55:15;;;;;;;4.00;1.80;;;;;;;14.41;77.05;100395.05;130564;1268;108905;-81
2022/07/07 03:58:20;;;;;;;1.60;1.40;;;;;;;14.49;77.08;100391.05;130425;1268;108961;-82
2022/07/07 04:01:25;;;;;;;2.20;1.40;;;;;;;14.56;76.84;100392.98;130424;1268;108742;-82
2022/07/07 04:04:31;;;;;;;3.50;1.60;;;;;;;14.65;77.15;100389.59;130359;1268;108092;-84
2022/07/07 04:07:36;;;;;;;2.00;1.30;;;;;;;14.69;76.99;100389.38;130379;1268;108840;-83
2022/07/07 04:10:41;;;;;;;2.20;1.50;;;;;;;14.71;77.25;100385.67;130345;1268;108966;-83
2022/07/07 04:13:47;;;;;;;2.00;1.40;;;;;;;14.81;77.03;100387.09;130603;1268;108750;-82
2022/07/07 04:16:52;;;;;;;3.30;1.50;;;;;;;14.91;77.06;100387.53;130811;1267;109702;-82
2022/07/07 04:19:58;;;;;;;2.70;1.50;;;;;;;15.02;76.99;100386.77;130538;1268;108774;-82
2022/07/07 04:23:03;;;;;;;4.30;1.50;;;;;;;15.15;77.03;100382.55;130601;1268;108830;-83
2022/07/07 04:26:09;;;;;;;3.60;1.50;;;;;;;15.26;76.69;100381.65;130392;1268;108674;-82
2022/07/07 04:29:14;;;;;;;3.70;1.40;;;;;;;15.32;76.66;100379.48;130325;1268;108794;-83
2022/07/07 04:32:20;;;;;;;2.20;1.30;;;;;;;15.40;76.86;100381.48;130355;1268;109557;-83
2022/07/07 04:35:25;;;;;;;1.80;1.40;;;;;;;15.49;76.79;100375.86;130289;1268;108725;-83
2022/07/07 04:38:31;;;;;;;2.50;1.50;;;;;;;15.60;76.81;100379.92;130392;1268;108553;-83
2022/07/07 04:41:36;;;;;;;2.30;1.30;;;;;;;15.68;76.69;100376.45;130308;1265;109052;-83
2022/07/07 04:44:42;;;;;;;2.80;1.30;;;;;;;15.78;76.70;100374.64;130367;1268;109186;-84
2022/07/07 04:47:47;;;;;;;1.90;1.10;;;;;;;15.88;76.58;100371.86;130297;1268;108629;-84
2022/07/07 04:50:52;;;;;;;3.30;1.30;;;;;;;16.04;76.45;100373.11;130344;1267;107645;-84
2022/07/07 04:53:58;;;;;;;1.20;1.10;;;;;;;16.21;76.16;100372.53;130553;1268;109739;-81
2022/07/07 04:57:04;;;;;;;3.20;1.20;;;;;;;16.36;76.06;100369.93;130329;1268;108757;-82
2022/07/07 05:00:12;;;;;;;1.10;1.00;;;;;;;16.52;76.08;100370.17;130361;1268;108581;-81
2022/07/07 05:03:17;;;;;;;2.20;1.50;;;;;;;16.68;76.01;100363.89;130328;1268;108296;-82
2022/07/07 05:06:22;;;;;;;1.40;1.20;;;;;;;16.79;75.87;100368.77;130347;1268;108906;-81
2022/07/07 05:09:28;;;;;;;2.20;1.30;;;;;;;16.89;75.56;100366.70;130292;1268;108725;-83
2022/07/07 05:12:33;;;;;;;3.00;1.00;;;;;;;16.99;75.53;100363.48;130407;1267;107748;-82
2022/07/07 05:15:38;;;;;;;2.40;1.30;;;;;;;17.12;75.44;100362.86;130385;1268;108662;-87
2022/07/07 05:18:44;;;;;;;2.50;1.20;;;;;;;17.28;75.23;100365.91;130297;1268;109012;-83
2022/07/07 05:21:49;;;;;;;2.70;1.40;;;;;;;17.44;75.22;100359.95;130319;1268;108759;-83
2022/07/07 05:24:55;;;;;;;1.90;1.10;;;;;;;17.64;74.97;100364.20;130402;1268;108709;-82
2022/07/07 05:28:00;;;;;;;2.40;1.50;;;;;;;17.82;74.67;100364.70;130413;1268;108509;-82
2022/07/07 05:31:06;;;;;;;3.40;1.40;;;;;;;17.96;74.51;100360.61;130357;1267;108464;-82
2022/07/07 05:34:11;;;;;;;3.90;1.40;;;;;;;18.08;74.35;100357.94;130398;1267;109175;-82
2022/07/07 05:37:16;;;;;;;2.70;1.20;;;;;;;18.19;74.36;100358.41;130332;1268;108841;-82
2022/07/07 05:40:22;;;;;;;1.80;1.10;;;;;;;18.38;74.12;100362.20;130366;1267;108810;-82
2022/07/07 05:43:27;;;;;;;3.90;1.30;;;;;;;18.62;74.24;100355.83;130454;1268;108677;-82
2022/07/07 05:46:33;;;;;;;2.00;1.30;;;;;;;18.89;73.57;100354.73;130423;1268;109091;-82
2022/07/07 05:49:38;;;;;;;1.80;1.30;;;;;;;19.11;73.46;100356.17;130453;1268;108652;-82
2022/07/07 05:52:44;;;;;;;2.00;1.30;;;;;;;19.33;73.23;100360.26;130432;1268;108547;-81
2022/07/07 05:55:49;;;;;;;2.80;1.40;;;;;;;19.61;73.29;100357.16;130395;1268;107505;-82
2022/07/07 05:58:55;;;;;;;3.30;1.50;;;;;;;19.88;72.49;100360.77;130350;1268;108867;-81
2022/07/07 06:02:00;;;;;;;5.60;2.10;;;;;;;20.09;71.92;100359.30;130417;1268;108542;-80
2022/07/07 06:05:06;;;;;;;1.90;1.10;;;;;;;20.23;71.48;100363.88;130439;1267;108607;-84
2022/07/07 06:08:12;;;;;;;3.00;1.60;;;;;;;20.31;70.66;100363.96;130427;1267;108744;-83
2022/07/07 06:11:17;;;;;;;2.90;1.30;;;;;;;20.41;70.59;100362.85;130324;1268;108707;-85
2022/07/07 06:14:23;;;;;;;2.00;1.20;;;;;;;20.48;69.75;100359.81;130475;1268;108661;-85
2022/07/07 06:17:28;;;;;;;3.30;1.10;;;;;;;20.50;69.16;100362.81;130611;1268;108718;-87
2022/07/07 06:20:33;;;;;;;1.60;1.10;;;;;;;20.48;68.99;100361.31;130572;1267;108755;-86
2022/07/07 06:23:39;;;;;;;5.10;1.50;;;;;;;20.52;69.24;100360.17;130386;1268;108704;-81
2022/07/07 06:26:44;;;;;;;4.30;1.60;;;;;;;20.61;68.98;100357.48;130426;1268;108985;-82
2022/07/07 06:29:50;;;;;;;2.00;1.30;;;;;;;20.71;68.92;100352.42;130404;1267;108634;-82
2022/07/07 06:32:55;;;;;;;2.50;1.30;;;;;;;20.72;67.48;100355.27;130398;1268;108705;-81
2022/07/07 06:36:01;;;;;;;4.80;1.90;;;;;;;20.75;67.86;100349.66;130441;1268;108818;-82
2022/07/07 06:39:06;;;;;;;3.70;1.90;;;;;;;20.89;67.90;100349.35;130408;1267;108800;-84
2022/07/07 06:42:12;;;;;;;3.20;1.80;;;;;;;21.09;68.25;100349.20;130394;1267;107784;-85
2022/07/07 06:45:19;;;;;;;4.20;2.00;;;;;;;21.35;68.02;100347.34;130359;1267;108783;-80
2022/07/07 06:48:25;;;;;;;1.80;1.20;;;;;;;21.58;67.20;100344.37;130293;1267;108943;-82
2022/07/07 06:51:30;;;;;;;3.00;1.80;;;;;;;21.69;66.54;100342.04;130453;1267;108824;-83
2022/07/07 06:54:35;;;;;;;2.00;1.00;;;;;;;21.79;65.15;100336.50;130397;1266;108918;-82
2022/07/07 06:57:41;;;;;;;2.50;1.10;;;;;;;21.64;64.53;100338.17;130407;1267;108286;-85
2022/07/07 07:00:46;;;;;;;1.80;1.00;;;;;;;21.53;63.55;100344.09;130410;1267;108856;-87
2022/07/07 07:03:51;;;;;;;2.60;1.00;;;;;;;21.44;63.63;100345.36;130356;1267;108735;-84
2022/07/07 07:06:57;;;;;;;1.70;0.90;;;;;;;21.46;64.05;100342.63;130430;1265;108835;-83
2022/07/07 07:10:02;;;;;;;5.90;1.00;;;;;;;21.52;63.47;100343.91;130289;1268;108923;-84
2022/07/07 07:13:08;;;;;;;2.60;1.00;;;;;;;21.42;62.81;100338.52;130424;1267;108409;-84
2022/07/07 07:16:13;;;;;;;2.00;1.00;;;;;;;21.52;63.89;100337.66;130408;1267;108859;-83
2022/07/07 07:19:18;;;;;;;3.40;1.20;;;;;;;21.67;62.92;100335.25;130328;1268;108950;-82
2022/07/07 07:22:24;;;;;;;2.30;1.10;;;;;;;21.76;62.90;100328.47;130376;1268;108676;-81
2022/07/07 07:25:30;;;;;;;2.20;1.20;;;;;;;21.91;63.03;100331.23;130283;1267;108972;-80
2022/07/07 07:28:35;;;;;;;2.30;0.80;;;;;;;22.04;61.37;100331.45;130406;1267;108744;-86
2022/07/07 07:31:41;;;;;;;2.50;0.70;;;;;;;21.65;56.81;100332.34;130420;1267;108789;-88
2022/07/07 07:34:46;;;;;;;4.00;1.10;;;;;;;21.32;60.01;100330.32;130445;1267;108704;-83
2022/07/07 07:37:51;;;;;;;2.90;1.10;;;;;;;21.44;61.44;100329.14;130435;1267;108968;-81
2022/07/07 07:40:57;;;;;;;2.40;0.90;;;;;;;21.68;62.06;100323.71;130652;1267;109327;-80
2022/07/07 07:44:02;;;;;;;3.60;0.80;;;;;;;21.85;60.29;100321.39;130833;1267;108771;-83
2022/07/07 07:47:08;;;;;;;1.20;0.60;;;;;;;21.70;60.09;100323.11;130422;1268;109142;-84
2022/07/07 07:50:16;;;;;;;1.00;0.80;;;;;;;21.32;56.32;100330.00;130360;1267;108981;-84
2022/07/07 07:53:21;;;;;;;1.80;0.90;;;;;;;20.87;58.54;100324.76;130434;1267;108836;-84
2022/07/07 07:56:27;;;;;;;1.60;0.90;;;;;;;20.86;58.67;100328.14;130311;1268;108712;-81
2022/07/07 07:59:32;;;;;;;3.60;0.80;;;;;;;20.98;59.83;100326.01;130396;1268;108668;-80
2022/07/07 08:02:37;;;;;;;2.00;1.00;;;;;;;21.16;59.98;100322.23;130180;1268;108871;-79
2022/07/07 08:05:43;;;;;;;2.70;0.70;;;;;;;21.35;59.99;100326.29;130243;1268;108716;-79
2022/07/07 08:08:48;;;;;;;2.20;0.80;;;;;;;21.22;54.05;100326.81;130368;1267;108855;-82
2022/07/07 08:11:54;;;;;;;1.40;0.70;;;;;;;20.76;55.80;100323.86;130374;1267;108908;-84
2022/07/07 08:14:59;;;;;;;0.90;0.70;;;;;;;20.70;55.18;100324.23;130426;1267;108638;-84
2022/07/07 08:18:05;;;;;;;1.10;0.70;;;;;;;20.65;56.81;100321.67;130289;1268;108819;-84
2022/07/07 08:21:10;;;;;;;1.20;0.70;;;;;;;20.78;56.68;100319.98;130340;1267;108808;-84
2022/07/07 08:24:16;;;;;;;1.80;0.70;;;;;;;20.68;55.22;100323.91;130389;1268;108956;-84
2022/07/07 08:27:22;;;;;;;1.40;0.80;;;;;;;20.58;55.80;100322.66;130447;1268;108735;-85
2022/07/07 08:30:27;;;;;;;1.00;0.60;;;;;;;20.61;56.82;100320.40;130474;1268;108368;-85
2022/07/07 08:33:33;;;;;;;2.50;0.80;;;;;;;20.73;56.89;100317.88;130446;1267;107276;-85
2022/07/07 08:36:39;;;;;;;1.10;0.70;;;;;;;20.84;56.42;100316.67;130405;1268;108747;-85
2022/07/07 08:39:44;;;;;;;1.70;0.70;;;;;;;20.86;56.67;100318.25;130413;1268;108499;-86
2022/07/07 08:42:50;;;;;;;1.30;0.60;;;;;;;20.90;56.88;100319.94;130427;1268;108754;-85
2022/07/07 08:45:57;;;;;;;1.50;0.90;;;;;;;20.99;56.92;100314.10;130422;1267;107253;-85
2022/07/07 08:49:02;;;;;;;2.20;0.80;;;;;;;21.03;56.41;100315.59;130468;1268;107150;-85
2022/07/07 08:52:09;;;;;;;1.90;0.70;;;;;;;21.10;57.03;100312.67;130424;1267;108865;-85
2022/07/07 08:55:17;;;;;;;1.40;0.70;;;;;;;21.21;57.03;100311.96;130303;1268;108863;-85
2022/07/07 08:58:22;;;;;;;3.10;0.90;;;;;;;21.35;56.78;100305.22;130336;1268;108565;-85
2022/07/07 09:01:28;;;;;;;1.20;0.70;;;;;;;21.54;56.20;100299.96;130400;1268;108971;-83
2022/07/07 09:04:33;;;;;;;5.20;0.80;;;;;;;21.72;55.51;100292.67;130419;1265;108702;-82
2022/07/07 09:07:50;;;;;;;2.10;0.80;;;;;;;21.90;55.40;100293.50;130379;1267;108986;-82
2022/07/07 09:10:56;;;;;;;2.30;0.70;;;;;;;22.02;53.29;100291.25;130443;1268;108804;-83
2022/07/07 09:14:11;;;;;;;1.10;0.70;;;;;;;22.05;53.70;100296.22;130475;1267;108755;-84
2022/07/07 09:17:28;;;;;;;1.40;0.80;;;;;;;21.97;54.12;100299.23;130468;1267;109071;-84
2022/07/07 09:20:37;;;;;;;1.20;0.70;;;;;;;22.18;54.68;100297.66;130448;1268;108819;-84
2022/07/07 09:23:54;;;;;;;1.50;0.80;;;;;;;22.49;54.17;100289.81;130420;1268;108928;-82
2022/07/07 09:26:59;;;;;;;1.80;0.80;;;;;;;22.66;51.92;100294.67;130505;1267;107509;-85
2022/07/07 09:30:05;;;;;;;2.20;0.80;;;;;;;22.49;53.28;100299.97;130438;1267;108744;-86
2022/07/07 09:33:12;;;;;;;1.80;0.80;;;;;;;22.56;52.97;100295.81;130403;1267;108860;-86
2022/07/07 09:39:47;;;;;;;2.90;0.90;;;;;;;22.93;53.88;100296.83;130463;1268;108777;-84
2022/07/07 09:43:02;;;;;;;1.80;0.80;;;;;;;23.24;53.20;100288.66;130510;1267;108801;-85
2022/07/07 09:46:17;;;;;;;1.40;0.70;;;;;;;23.39;50.59;100291.09;130372;1268;108964;-82
2022/07/07 09:49:23;;;;;;;1.50;0.70;;;;;;;23.38;51.87;100288.46;130371;1267;108764;-82
2022/07/07 09:52:29;;;;;;;2.90;0.70;;;;;;;23.52;50.95;100282.61;130385;1267;108732;-76
2022/07/07 09:55:34;;;;;;;5.20;1.30;;;;;;;23.62;51.55;100281.41;130356;1267;108681;-77
2022/07/07 09:58:40;;;;;;;2.40;0.70;;;;;;;23.73;51.61;100283.50;130285;1268;108834;-78
2022/07/07 10:01:48;;;;;;;4.60;0.70;;;;;;;23.76;51.08;100281.56;130395;1267;108567;-78
2022/07/07 10:04:56;;;;;;;1.30;0.50;;;;;;;23.61;50.54;100280.63;130323;1268;107727;-78
2022/07/07 10:08:02;;;;;;;1.20;0.60;;;;;;;23.48;51.19;100279.75;130287;1267;107798;-77
2022/07/07 10:11:10;;;;;;;2.80;1.00;;;;;;;23.54;50.98;100281.52;130413;1267;108941;-78
2022/07/07 10:14:17;;;;;;;4.20;0.60;;;;;;;23.49;49.99;100287.02;130424;1268;108564;-77
2022/07/07 10:17:23;;;;;;;1.50;0.50;;;;;;;23.34;49.93;100289.50;130409;1268;107063;-78
2022/07/07 10:20:29;;;;;;;2.90;0.60;;;;;;;23.10;49.27;100290.33;130447;1267;108958;-77
2022/07/07 10:23:35;;;;;;;2.70;0.60;;;;;;;22.82;49.02;100289.23;130438;1267;107854;-79
2022/07/07 10:26:42;;;;;;;1.70;0.50;;;;;;;22.82;50.83;100290.21;130452;1267;108608;-78
2022/07/07 10:29:50;;;;;;;6.30;1.30;;;;;;;23.04;50.57;100287.78;130377;1267;109503;-77
2022/07/07 10:32:56;;;;;;;3.00;0.70;;;;;;;23.28;48.37;100280.73;130412;1267;108890;-77
2022/07/07 10:36:02;;;;;;;1.90;0.80;;;;;;;23.37;49.48;100281.62;130444;1267;106955;-77
2022/07/07 10:39:09;;;;;;;1.10;0.60;;;;;;;23.52;48.93;100284.86;130412;1267;108723;-77
2022/07/07 10:42:53;;;;;;;3.00;0.60;;;;;;;23.70;48.83;100282.14;130431;1267;108615;-78
2022/07/07 10:45:59;;;;;;;3.40;0.50;;;;;;;23.94;48.20;100278.80;130639;1267;108963;-78
2022/07/07 10:49:12;;;;;;;1.10;0.60;;;;;;;24.06;47.93;100277.04;130238;1268;108969;-78
2022/07/07 10:52:19;;;;;;;0.90;0.50;;;;;;;24.30;46.90;100278.75;130438;1267;108825;-77
2022/07/07 10:55:52;;;;;;;1.20;0.50;;;;;;;24.07;45.19;100278.30;130512;1267;107830;-81
2022/07/07 10:59:02;;;;;;;0.60;0.40;;;;;;;23.88;46.92;100278.36;130731;1267;108837;-79
2022/07/07 11:02:16;;;;;;;0.70;0.40;;;;;;;23.77;47.27;100279.20;130565;1267;109046;-81
2022/07/07 11:05:30;;;;;;;1.00;0.50;;;;;;;23.68;47.20;100277.56;130476;1267;108940;-81
2022/07/07 11:08:39;;;;;;;1.40;0.50;;;;;;;23.63;47.39;100276.10;130440;1267;108525;-82
2022/07/07 11:11:44;;;;;;;1.90;0.60;;;;;;;23.64;47.78;100271.39;130337;1268;108625;-81
2022/07/07 11:15:30;;;;;;;2.90;0.60;;;;;;;23.63;46.72;100269.23;130520;1267;108617;-81
2022/07/07 11:18:37;;;;;;;0.70;0.50;;;;;;;23.68;46.66;100266.58;130549;1267;108645;-82
2022/07/07 11:21:44;;;;;;;0.60;0.30;;;;;;;23.50;43.22;100263.89;130581;1267;108726;-81
2022/07/07 11:24:50;;;;;;;0.90;0.40;;;;;;;22.96;43.46;100260.27;130540;1267;108840;-80
2022/07/07 11:27:58;;;;;;;1.30;0.60;;;;;;;22.79;45.32;100268.36;130569;1267;108991;-81
2022/07/07 11:31:07;;;;;;;0.90;0.50;;;;;;;22.78;45.62;100269.70;130573;1267;109060;-82
2022/07/07 11:34:13;;;;;;;1.20;0.50;;;;;;;22.75;45.72;100268.39;130613;1267;107726;-83
2022/07/07 11:37:28;;;;;;;3.10;0.70;;;;;;;22.82;45.72;100266.87;130548;1267;108814;-81
2022/07/07 11:40:34;;;;;;;3.00;0.90;;;;;;;22.90;45.59;100265.13;130332;1268;108068;-82
2022/07/07 11:43:39;;;;;;;1.40;0.70;;;;;;;23.01;45.57;100266.27;130564;1267;109132;-83
2022/07/07 11:46:47;;;;;;;0.90;0.60;;;;;;;23.17;46.14;100266.23;130533;1267;108650;-81
2022/07/07 11:49:55;;;;;;;1.80;0.70;;;;;;;23.42;46.22;100264.27;130355;1268;108689;-80
2022/07/07 11:53:03;;;;;;;4.10;0.80;;;;;;;23.69;45.89;100264.68;130446;1268;108730;-83
2022/07/07 11:56:09;;;;;;;1.60;0.60;;;;;;;23.75;45.78;100264.31;130454;1268;108128;-83
2022/07/07 11:59:14;;;;;;;1.50;0.70;;;;;;;23.85;45.55;100264.19;130488;1267;108791;-81
2022/07/07 12:02:20;;;;;;;0.80;0.60;;;;;;;23.89;44.98;100263.01;130452;1267;108835;-83
2022/07/07 12:05:27;;;;;;;1.00;0.60;;;;;;;23.73;44.34;100260.58;130499;1267;108905;-81
2022/07/07 12:08:39;;;;;;;1.00;0.50;;;;;;;23.69;44.72;100254.70;130523;1267;108710;-81
2022/07/07 12:11:45;;;;;;;1.00;0.70;;;;;;;23.74;44.80;100253.73;130526;1267;108538;-83
2022/07/07 12:14:50;;;;;;;2.00;0.60;;;;;;;23.89;44.68;100254.51;130581;1268;108749;-83
2022/07/07 12:17:56;;;;;;;1.50;0.60;;;;;;;23.95;44.25;100252.45;130450;1267;108785;-83
2022/07/07 12:21:03;;;;;;;1.30;0.60;;;;;;;24.01;44.50;100248.30;130594;1267;108872;-89
2022/07/07 12:24:12;;;;;;;1.20;0.70;;;;;;;24.20;44.18;100245.64;130415;1268;108581;-82
2022/07/07 12:27:20;;;;;;;1.20;0.60;;;;;;;24.22;43.75;100247.14;130453;1268;109721;-82
2022/07/07 12:30:27;;;;;;;1.20;0.40;;;;;;;24.21;44.07;100251.69;130488;1268;107838;-77
2022/07/07 12:33:35;;;;;;;0.80;0.60;;;;;;;24.21;44.42;100246.31;130363;1267;107437;-75
2022/07/07 12:36:44;;;;;;;1.10;0.70;;;;;;;24.20;44.04;100244.96;130343;1267;107386;-75
2022/07/07 12:39:52;;;;;;;1.60;0.60;;;;;;;24.19;43.73;100238.70;130218;1268;108742;-81
2022/07/07 12:43:04;;;;;;;1.70;0.90;;;;;;;24.22;43.73;100239.13;130357;1268;107176;-75
2022/07/07 12:46:11;;;;;;;2.10;0.80;;;;;;;24.31;43.46;100234.38;130403;1267;108851;-75
2022/07/07 12:49:17;;;;;;;2.10;0.70;;;;;;;24.16;43.58;100233.99;130408;1267;108921;-76
2022/07/07 12:52:23;;;;;;;0.90;0.60;;;;;;;24.10;44.34;100240.42;130391;1268;108743;-75
2022/07/07 12:55:37;;;;;;;0.90;0.60;;;;;;;24.10;44.17;100235.67;130372;1268;107996;-74
2022/07/07 12:58:48;;;;;;;1.00;0.50;;;;;;;24.12;44.74;100232.13;130384;1268;108771;-77
2022/07/07 13:01:56;;;;;;;1.70;0.60;;;;;;;24.11;43.89;100231.40;130360;1267;108885;-75
2022/07/07 13:05:01;;;;;;;2.40;0.60;;;;;;;24.08;44.12;100230.35;130392;1267;108954;-75
2022/07/07 13:08:07;;;;;;;0.90;0.50;;;;;;;24.13;44.83;100227.98;129998;1268;323864;-75
2022/07/07 13:11:13;;;;;;;2.30;1.00;;;;;;;24.24;44.75;100226.95;130220;1271;108756;-75
2022/07/07 13:14:19;;;;;;;1.70;0.70;;;;;;;24.15;42.61;100225.14;130442;1267;108729;-75
2022/07/07 13:17:24;;;;;;;1.20;0.70;;;;;;;24.07;44.80;100225.48;130382;1267;107608;-75
2022/07/07 13:20:30;;;;;;;2.30;0.70;;;;;;;24.23;45.22;100225.34;130444;1267;107648;-75
2022/07/07 13:23:36;;;;;;;1.50;1.00;;;;;;;24.31;43.89;100225.27;130226;1269;108984;-75
2022/07/07 13:26:42;;;;;;;3.40;0.80;;;;;;;24.04;41.74;100224.45;130369;1267;109261;-76
2022/07/07 13:29:47;;;;;;;2.80;0.70;;;;;;;23.73;42.18;100221.98;130228;1269;108189;-74
2022/07/07 13:32:53;;;;;;;1.20;0.50;;;;;;;23.58;42.64;100223.91;130416;1267;108976;-75
2022/07/07 13:35:58;;;;;;;0.90;0.70;;;;;;;23.55;41.65;100219.82;130332;1267;108858;-74
2022/07/07 13:39:04;;;;;;;1.90;0.70;;;;;;;23.56;42.77;100219.50;130461;1267;107763;-74
2022/07/07 13:42:10;;;;;;;1.10;0.60;;;;;;;23.59;40.78;100216.57;130492;1268;108369;-76
2022/07/07 13:45:16;;;;;;;1.30;0.90;;;;;;;23.45;41.00;100218.18;130442;1268;108725;-73
2022/07/07 13:48:22;;;;;;;1.20;0.60;;;;;;;23.43;41.61;100213.89;130233;1269;108924;-73
2022/07/07 13:51:27;;;;;;;1.40;0.70;;;;;;;23.60;41.18;100216.38;130420;1267;108732;-73
2022/07/07 13:54:33;;;;;;;1.10;0.60;;;;;;;23.67;41.19;100215.77;130443;1267;109470;-75
2022/07/07 13:57:38;;;;;;;1.60;0.60;;;;;;;23.79;42.30;100214.28;130313;1268;109669;-73
2022/07/07 14:00:45;;;;;;;1.10;0.60;;;;;;;23.95;41.09;100212.27;130382;1267;108892;-73
2022/07/07 14:03:50;;;;;;;2.90;0.80;;;;;;;23.87;40.73;100205.52;130344;1268;108761;-73
2022/07/07 14:06:55;;;;;;;3.00;0.70;;;;;;;23.75;40.63;100208.15;130345;1268;109053;-73
2022/07/07 14:10:01;;;;;;;4.70;0.90;;;;;;;23.88;41.34;100208.45;130429;1267;108767;-75
2022/07/07 14:13:06;;;;;;;1.30;0.80;;;;;;;23.90;39.82;100205.34;130206;1269;108775;-73